createdAt,value
2022-10-19T16:02:58.908Z,3.58
2022-10-19T16:05:34.346Z,2.95
2022-10-19T16:08:10.164Z,3.35
2022-10-19T16:10:59.311Z,3.45
2022-10-19T16:13:33.822Z,3.33
2022-10-19T16:16:20.741Z,3.38
2022-10-19T16:18:54.519Z,4.15
2022-10-19T16:21:36.353Z,4.50
2022-10-19T16:24:11.374Z,3.63
2022-10-19T16:26:41.875Z,3.85
2022-10-19T16:29:20.048Z,3.40
2022-10-19T16:31:58.810Z,4.25
2022-10-19T16:35:01.006Z,3.30
2022-10-19T16:37:42.286Z,3.83
2022-10-19T16:40:16.369Z,4.03
2022-10-19T16:43:02.799Z,3.63
2022-10-19T16:45:33.559Z,3.67
2022-10-19T16:48:02.811Z,3.35
2022-10-19T16:50:32.915Z,3.92
2022-10-19T16:53:15.184Z,4.88
2022-10-19T16:55:47.979Z,3.78
2022-10-19T16:58:18.917Z,3.90
2022-10-19T17:03:43.204Z,4.20
2022-10-19T17:06:12.576Z,4.43
2022-10-19T17:09:14.767Z,5.03
2022-10-19T17:11:38.416Z,3.80
2022-10-19T17:14:13.688Z,3.95
2022-10-19T17:16:44.313Z,4.07
2022-10-19T17:19:17.684Z,3.88
2022-10-19T17:21:52.148Z,3.42
2022-10-19T17:24:21.891Z,3.58
2022-10-19T17:26:55.251Z,4.65
2022-10-19T17:29:25.593Z,4.32
2022-10-19T17:31:56.130Z,5.00
2022-10-19T17:34:34.002Z,4.80
2022-10-19T17:37:04.600Z,5.07
2022-10-19T17:39:35.127Z,5.20
2022-10-19T17:42:09.251Z,4.97
2022-10-19T17:44:42.743Z,4.32
2022-10-19T17:47:11.665Z,5.22
2022-10-19T17:49:45.043Z,4.82
2022-10-19T17:52:22.781Z,5.38
2022-10-19T17:55:11.037Z,4.78
2022-10-19T17:57:47.838Z,4.65
2022-10-19T18:00:38.988Z,5.90
2022-10-19T18:03:25.458Z,4.68
2022-10-19T18:06:18.317Z,5.28
2022-10-19T18:09:03.417Z,5.05
2022-10-19T18:11:54.370Z,5.05
2022-10-19T18:14:46.209Z,4.47
2022-10-19T18:17:24.137Z,5.03
2022-10-19T18:20:06.053Z,5.20
2022-10-19T18:23:02.413Z,5.15
2022-10-19T18:25:55.452Z,5.47
2022-10-19T18:28:36.320Z,5.70
2022-10-19T18:31:37.773Z,5.30
2022-10-19T18:34:37.158Z,5.70
2022-10-19T18:37:12.190Z,5.30
2022-10-19T18:39:49.995Z,5.18
2022-10-19T18:42:26.360Z,5.40
2022-10-19T18:45:05.159Z,5.70
2022-10-19T18:47:35.587Z,5.25
2022-10-19T18:50:08.786Z,5.85
2022-10-19T18:52:49.359Z,5.05
2022-10-19T18:55:31.680Z,4.60
2022-10-19T18:58:05.065Z,5.43
2022-10-19T19:00:46.540Z,6.18
2022-10-19T19:03:14.410Z,5.57
2022-10-19T19:05:52.671Z,5.88
2022-10-19T19:11:23.331Z,5.00
2022-10-19T19:14:16.169Z,5.10
2022-10-19T19:16:54.819Z,5.72
2022-10-19T19:19:26.297Z,5.50
2022-10-19T19:22:11.135Z,5.43
2022-10-19T19:24:50.595Z,5.95
2022-10-19T19:27:23.331Z,5.45
2022-10-19T19:34:03.171Z,5.53
2022-10-19T19:39:24.075Z,5.53
2022-10-19T19:41:51.611Z,5.78
2022-10-19T19:44:27.722Z,6.03
2022-10-19T19:47:08.845Z,5.45
2022-10-19T19:49:39.360Z,5.22
2022-10-19T19:52:12.201Z,5.18
2022-10-19T19:54:51.265Z,5.43
2022-10-19T19:57:26.771Z,4.63
2022-10-19T20:00:05.598Z,5.53
2022-10-19T20:02:44.934Z,6.03
2022-10-19T20:05:15.765Z,5.20
2022-10-19T20:07:55.607Z,5.40
2022-10-19T20:10:29.103Z,5.82
2022-10-19T20:15:56.043Z,5.93
2022-10-19T20:19:09.968Z,5.55
2022-10-19T20:22:05.408Z,4.90
2022-10-19T20:25:11.829Z,5.78
2022-10-19T20:28:56.171Z,5.00
2022-10-19T20:31:52.847Z,5.85
2022-10-19T20:40:27.450Z,4.10
2022-10-19T20:43:07.396Z,5.15
2022-10-19T20:46:17.323Z,4.30
2022-10-19T20:48:43.294Z,5.22
2022-10-19T20:51:31.006Z,5.18
2022-10-19T20:57:18.177Z,5.18
2022-10-19T20:59:49.616Z,5.10
2022-10-19T21:02:28.729Z,5.15
2022-10-19T21:05:11.193Z,4.78
2022-10-19T21:07:40.884Z,5.10
2022-10-19T21:10:11.568Z,5.22
2022-10-19T21:12:41.379Z,5.00
2022-10-19T21:15:19.218Z,5.32
2022-10-19T21:17:51.084Z,5.53
2022-10-19T21:20:22.107Z,5.57
2022-10-19T21:22:50.013Z,5.25
2022-10-19T21:25:31.255Z,4.68
2022-10-19T21:27:59.837Z,5.25
2022-10-19T21:30:35.658Z,5.80
2022-10-19T21:33:07.014Z,5.70
2022-10-19T21:35:39.321Z,5.32
2022-10-19T21:38:13.546Z,4.90
2022-10-19T21:40:46.230Z,5.53
2022-10-19T21:43:17.376Z,5.75
2022-10-19T21:45:53.218Z,6.13
2022-10-19T21:48:31.431Z,6.10
2022-10-19T21:51:15.087Z,7.20
2022-10-19T21:53:48.359Z,5.68
2022-10-19T21:56:21.860Z,7.45
2022-10-19T22:01:40.135Z,5.97
2022-10-19T22:04:23.835Z,6.28
2022-10-19T22:07:01.994Z,6.82
2022-10-19T22:09:29.345Z,7.05
2022-10-19T22:12:09.688Z,6.07
2022-10-19T22:14:37.225Z,7.00
2022-10-19T22:17:10.636Z,6.50
2022-10-19T22:19:39.515Z,6.85
2022-10-19T22:22:12.450Z,6.80
2022-10-19T22:24:47.948Z,5.63
2022-10-19T22:27:21.367Z,7.25
2022-10-19T22:32:34.988Z,7.05
2022-10-19T22:35:03.897Z,6.75
2022-10-19T22:37:36.694Z,6.15
2022-10-19T22:40:07.740Z,5.50
2022-10-19T22:42:41.422Z,5.80
2022-10-19T22:45:09.635Z,7.50
2022-10-19T22:47:47.822Z,5.93
2022-10-19T22:50:21.308Z,6.38
2022-10-19T22:55:26.178Z,5.75
2022-10-19T22:57:55.053Z,6.18
2022-10-19T23:00:25.230Z,5.65
2022-10-19T23:02:52.434Z,6.22
2022-10-19T23:05:29.429Z,6.40
2022-10-19T23:07:59.342Z,6.20
2022-10-19T23:10:52.577Z,5.15
2022-10-19T23:13:27.402Z,6.28
2022-10-19T23:16:02.299Z,5.45
2022-10-19T23:18:42.888Z,5.90
2022-10-19T23:21:14.968Z,5.95
2022-10-19T23:23:46.013Z,5.93
2022-10-19T23:26:23.060Z,5.28
2022-10-19T23:28:55.228Z,6.45
2022-10-19T23:31:30.833Z,5.97
2022-10-19T23:34:01.514Z,6.13
2022-10-19T23:36:32.354Z,6.18
2022-10-19T23:39:08.830Z,6.05
2022-10-19T23:41:41.984Z,5.88
2022-10-19T23:44:14.732Z,5.78
2022-10-19T23:46:44.818Z,6.38
2022-10-19T23:49:29.676Z,5.82
2022-10-19T23:52:01.638Z,6.55
2022-10-19T23:54:40.466Z,6.88
2022-10-19T23:57:19.625Z,5.88
2022-10-19T23:59:56.396Z,6.57
